sensor_id;sensor_type;location;lat;lon;timestamp;P1;durP1;ratioP1;P2;durP2;ratioP2
17814;SDS011;9031;50.974;11.330;2024-03-17T00:01:45;5.97;;;4.73;;
17814;SDS011;9031;50.974;11.330;2024-03-17T00:04:10;5.80;;;3.83;;
17814;SDS011;9031;50.974;11.330;2024-03-17T00:06:36;4.40;;;4.00;;
17814;SDS011;9031;50.974;11.330;2024-03-17T00:09:01;5.07;;;3.67;;
17814;SDS011;9031;50.974;11.330;2024-03-17T00:11:31;4.03;;;3.60;;
17814;SDS011;9031;50.974;11.330;2024-03-17T00:14:00;4.27;;;3.53;;
17814;SDS011;9031;50.974;11.330;2024-03-17T00:16:26;4.33;;;3.33;;
17814;SDS011;9031;50.974;11.330;2024-03-17T00:18:52;3.77;;;3.10;;
17814;SDS011;9031;50.974;11.330;2024-03-17T00:21:17;5.73;;;3.37;;
17814;SDS011;9031;50.974;11.330;2024-03-17T00:23:44;4.03;;;2.87;;
17814;SDS011;9031;50.974;11.330;2024-03-17T00:26:12;5.70;;;2.90;;
17814;SDS011;9031;50.974;11.330;2024-03-17T00:28:37;4.30;;;3.00;;
17814;SDS011;9031;50.974;11.330;2024-03-17T00:31:04;3.30;;;2.90;;
17814;SDS011;9031;50.974;11.330;2024-03-17T00:33:30;4.60;;;3.00;;
17814;SDS011;9031;50.974;11.330;2024-03-17T00:35:55;4.60;;;3.23;;
17814;SDS011;9031;50.974;11.330;2024-03-17T00:38:21;3.93;;;2.97;;
17814;SDS011;9031;50.974;11.330;2024-03-17T00:40:46;3.70;;;3.07;;
17814;SDS011;9031;50.974;11.330;2024-03-17T00:43:14;4.07;;;2.60;;
17814;SDS011;9031;50.974;11.330;2024-03-17T00:45:39;5.93;;;3.10;;
17814;SDS011;9031;50.974;11.330;2024-03-17T00:48:05;6.63;;;3.17;;
17814;SDS011;9031;50.974;11.330;2024-03-17T00:50:31;4.17;;;2.60;;
17814;SDS011;9031;50.974;11.330;2024-03-17T00:52:57;3.17;;;2.80;;
17814;SDS011;9031;50.974;11.330;2024-03-17T00:55:22;5.93;;;3.00;;
17814;SDS011;9031;50.974;11.330;2024-03-17T00:57:48;5.70;;;3.13;;
17814;SDS011;9031;50.974;11.330;2024-03-17T01:00:13;3.13;;;2.80;;
17814;SDS011;9031;50.974;11.330;2024-03-17T01:02:40;6.47;;;3.03;;
17814;SDS011;9031;50.974;11.330;2024-03-17T01:05:06;4.57;;;3.00;;
17814;SDS011;9031;50.974;11.330;2024-03-17T01:07:32;4.73;;;2.93;;
17814;SDS011;9031;50.974;11.330;2024-03-17T01:09:58;6.43;;;3.13;;
17814;SDS011;9031;50.974;11.330;2024-03-17T01:12:24;4.43;;;2.80;;
17814;SDS011;9031;50.974;11.330;2024-03-17T01:14:50;4.70;;;2.77;;
17814;SDS011;9031;50.974;11.330;2024-03-17T01:17:15;4.70;;;2.57;;
17814;SDS011;9031;50.974;11.330;2024-03-17T01:19:41;3.10;;;2.80;;
17814;SDS011;9031;50.974;11.330;2024-03-17T01:22:06;4.27;;;2.53;;
17814;SDS011;9031;50.974;11.330;2024-03-17T01:24:32;4.23;;;2.63;;
17814;SDS011;9031;50.974;11.330;2024-03-17T01:26:58;4.20;;;2.73;;
17814;SDS011;9031;50.974;11.330;2024-03-17T01:29:24;3.00;;;2.67;;
17814;SDS011;9031;50.974;11.330;2024-03-17T01:31:50;3.13;;;2.50;;
17814;SDS011;9031;50.974;11.330;2024-03-17T01:34:16;3.40;;;2.87;;
17814;SDS011;9031;50.974;11.330;2024-03-17T01:36:42;5.77;;;2.70;;
17814;SDS011;9031;50.974;11.330;2024-03-17T01:39:09;3.87;;;2.80;;
17814;SDS011;9031;50.974;11.330;2024-03-17T01:41:34;3.70;;;2.70;;
17814;SDS011;9031;50.974;11.330;2024-03-17T01:44:00;3.40;;;2.73;;
17814;SDS011;9031;50.974;11.330;2024-03-17T01:46:25;4.20;;;2.90;;
17814;SDS011;9031;50.974;11.330;2024-03-17T01:48:51;8.53;;;3.00;;
17814;SDS011;9031;50.974;11.330;2024-03-17T01:51:16;4.40;;;2.80;;
17814;SDS011;9031;50.974;11.330;2024-03-17T01:53:43;3.40;;;3.10;;
17814;SDS011;9031;50.974;11.330;2024-03-17T01:56:10;4.30;;;2.70;;
17814;SDS011;9031;50.974;11.330;2024-03-17T01:58:36;4.23;;;2.77;;
17814;SDS011;9031;50.974;11.330;2024-03-17T02:01:02;4.13;;;2.93;;
17814;SDS011;9031;50.974;11.330;2024-03-17T02:03:29;2.97;;;2.67;;
17814;SDS011;9031;50.974;11.330;2024-03-17T02:05:55;4.80;;;3.17;;
17814;SDS011;9031;50.974;11.330;2024-03-17T02:08:21;3.53;;;3.10;;
17814;SDS011;9031;50.974;11.330;2024-03-17T02:10:52;5.60;;;2.87;;
17814;SDS011;9031;50.974;11.330;2024-03-17T02:13:18;2.60;;;2.40;;
17814;SDS011;9031;50.974;11.330;2024-03-17T02:15:44;4.40;;;2.93;;
17814;SDS011;9031;50.974;11.330;2024-03-17T02:18:10;4.27;;;2.50;;
17814;SDS011;9031;50.974;11.330;2024-03-17T02:20:35;3.30;;;2.43;;
17814;SDS011;9031;50.974;11.330;2024-03-17T02:23:19;4.20;;;2.80;;
17814;SDS011;9031;50.974;11.330;2024-03-17T02:25:45;4.43;;;2.43;;
17814;SDS011;9031;50.974;11.330;2024-03-17T02:28:11;4.10;;;2.90;;
17814;SDS011;9031;50.974;11.330;2024-03-17T02:30:37;3.93;;;2.83;;
17814;SDS011;9031;50.974;11.330;2024-03-17T02:33:02;6.17;;;2.90;;
17814;SDS011;9031;50.974;11.330;2024-03-17T02:35:28;4.33;;;3.00;;
17814;SDS011;9031;50.974;11.330;2024-03-17T02:37:53;3.20;;;2.73;;
17814;SDS011;9031;50.974;11.330;2024-03-17T02:40:19;4.30;;;2.90;;
17814;SDS011;9031;50.974;11.330;2024-03-17T02:42:44;2.67;;;2.47;;
17814;SDS011;9031;50.974;11.330;2024-03-17T02:45:13;6.63;;;2.53;;
17814;SDS011;9031;50.974;11.330;2024-03-17T02:47:38;3.47;;;2.67;;
17814;SDS011;9031;50.974;11.330;2024-03-17T02:50:05;4.63;;;3.27;;
17814;SDS011;9031;50.974;11.330;2024-03-17T02:52:31;3.70;;;2.93;;
17814;SDS011;9031;50.974;11.330;2024-03-17T02:54:57;3.63;;;3.20;;
17814;SDS011;9031;50.974;11.330;2024-03-17T02:57:22;4.80;;;3.13;;
17814;SDS011;9031;50.974;11.330;2024-03-17T02:59:54;3.10;;;2.80;;
17814;SDS011;9031;50.974;11.330;2024-03-17T03:02:20;4.27;;;2.87;;
17814;SDS011;9031;50.974;11.330;2024-03-17T03:04:45;4.37;;;2.97;;
17814;SDS011;9031;50.974;11.330;2024-03-17T03:07:11;3.47;;;2.67;;
17814;SDS011;9031;50.974;11.330;2024-03-17T03:09:37;6.30;;;3.03;;
17814;SDS011;9031;50.974;11.330;2024-03-17T03:12:02;3.07;;;2.83;;
17814;SDS011;9031;50.974;11.330;2024-03-17T03:14:28;3.87;;;2.60;;
17814;SDS011;9031;50.974;11.330;2024-03-17T03:16:54;3.60;;;3.10;;
17814;SDS011;9031;50.974;11.330;2024-03-17T03:19:19;6.17;;;2.90;;
17814;SDS011;9031;50.974;11.330;2024-03-17T03:21:45;8.17;;;3.07;;
17814;SDS011;9031;50.974;11.330;2024-03-17T03:24:11;3.93;;;3.00;;
17814;SDS011;9031;50.974;11.330;2024-03-17T03:26:38;4.07;;;3.00;;
17814;SDS011;9031;50.974;11.330;2024-03-17T03:29:04;3.27;;;2.63;;
17814;SDS011;9031;50.974;11.330;2024-03-17T03:31:33;2.83;;;2.47;;
17814;SDS011;9031;50.974;11.330;2024-03-17T03:33:59;5.40;;;2.87;;
17814;SDS011;9031;50.974;11.330;2024-03-17T03:36:28;3.63;;;2.63;;
17814;SDS011;9031;50.974;11.330;2024-03-17T03:38:54;3.97;;;2.70;;
17814;SDS011;9031;50.974;11.330;2024-03-17T03:41:22;2.83;;;2.60;;
17814;SDS011;9031;50.974;11.330;2024-03-17T03:43:48;4.90;;;3.03;;
17814;SDS011;9031;50.974;11.330;2024-03-17T03:46:14;5.13;;;3.07;;
17814;SDS011;9031;50.974;11.330;2024-03-17T03:48:40;3.50;;;2.67;;
17814;SDS011;9031;50.974;11.330;2024-03-17T03:51:05;4.90;;;2.67;;
17814;SDS011;9031;50.974;11.330;2024-03-17T03:53:32;3.33;;;2.90;;
17814;SDS011;9031;50.974;11.330;2024-03-17T03:55:58;3.13;;;2.50;;
17814;SDS011;9031;50.974;11.330;2024-03-17T03:58:29;3.40;;;2.70;;
17814;SDS011;9031;50.974;11.330;2024-03-17T04:00:55;2.57;;;2.30;;
17814;SDS011;9031;50.974;11.330;2024-03-17T04:03:22;2.83;;;2.47;;
17814;SDS011;9031;50.974;11.330;2024-03-17T04:05:47;4.27;;;2.93;;
17814;SDS011;9031;50.974;11.330;2024-03-17T04:08:13;2.87;;;2.43;;
17814;SDS011;9031;50.974;11.330;2024-03-17T04:10:39;4.17;;;2.67;;
17814;SDS011;9031;50.974;11.330;2024-03-17T04:13:04;4.03;;;2.67;;
17814;SDS011;9031;50.974;11.330;2024-03-17T04:15:29;5.23;;;2.67;;
17814;SDS011;9031;50.974;11.330;2024-03-17T04:17:55;3.43;;;2.60;;
17814;SDS011;9031;50.974;11.330;2024-03-17T04:20:20;4.60;;;2.40;;
17814;SDS011;9031;50.974;11.330;2024-03-17T04:22:46;3.77;;;2.40;;
17814;SDS011;9031;50.974;11.330;2024-03-17T04:25:13;4.00;;;2.40;;
17814;SDS011;9031;50.974;11.330;2024-03-17T04:27:38;4.93;;;2.57;;
17814;SDS011;9031;50.974;11.330;2024-03-17T04:30:04;5.07;;;2.30;;
17814;SDS011;9031;50.974;11.330;2024-03-17T04:32:31;2.97;;;2.30;;
17814;SDS011;9031;50.974;11.330;2024-03-17T04:34:57;2.40;;;2.20;;
17814;SDS011;9031;50.974;11.330;2024-03-17T04:37:23;2.63;;;2.10;;
17814;SDS011;9031;50.974;11.330;2024-03-17T04:39:49;3.33;;;2.40;;
17814;SDS011;9031;50.974;11.330;2024-03-17T04:42:16;3.97;;;2.33;;
17814;SDS011;9031;50.974;11.330;2024-03-17T04:44:43;2.47;;;2.27;;
17814;SDS011;9031;50.974;11.330;2024-03-17T04:47:09;4.63;;;2.33;;
17814;SDS011;9031;50.974;11.330;2024-03-17T04:49:39;3.17;;;2.10;;
17814;SDS011;9031;50.974;11.330;2024-03-17T04:52:05;3.20;;;2.10;;
17814;SDS011;9031;50.974;11.330;2024-03-17T04:54:32;3.73;;;2.50;;
17814;SDS011;9031;50.974;11.330;2024-03-17T04:56:58;2.57;;;2.13;;
17814;SDS011;9031;50.974;11.330;2024-03-17T04:59:23;3.97;;;1.93;;
17814;SDS011;9031;50.974;11.330;2024-03-17T05:01:49;6.40;;;2.80;;
17814;SDS011;9031;50.974;11.330;2024-03-17T05:04:15;3.93;;;2.30;;
17814;SDS011;9031;50.974;11.330;2024-03-17T05:06:41;3.87;;;2.53;;
17814;SDS011;9031;50.974;11.330;2024-03-17T05:09:07;3.47;;;2.30;;
17814;SDS011;9031;50.974;11.330;2024-03-17T05:11:33;2.80;;;2.50;;
17814;SDS011;9031;50.974;11.330;2024-03-17T05:14:00;2.53;;;2.33;;
17814;SDS011;9031;50.974;11.330;2024-03-17T05:16:25;3.57;;;2.50;;
17814;SDS011;9031;50.974;11.330;2024-03-17T05:18:54;4.83;;;2.70;;
17814;SDS011;9031;50.974;11.330;2024-03-17T05:21:20;2.57;;;1.83;;
17814;SDS011;9031;50.974;11.330;2024-03-17T05:23:47;2.27;;;2.07;;
17814;SDS011;9031;50.974;11.330;2024-03-17T05:26:13;2.73;;;2.43;;
17814;SDS011;9031;50.974;11.330;2024-03-17T05:28:39;3.20;;;2.50;;
17814;SDS011;9031;50.974;11.330;2024-03-17T05:31:04;2.93;;;2.50;;
17814;SDS011;9031;50.974;11.330;2024-03-17T05:33:30;3.47;;;2.50;;
17814;SDS011;9031;50.974;11.330;2024-03-17T05:35:59;2.23;;;1.73;;
17814;SDS011;9031;50.974;11.330;2024-03-17T05:38:27;2.43;;;2.20;;
17814;SDS011;9031;50.974;11.330;2024-03-17T05:40:58;2.60;;;2.10;;
17814;SDS011;9031;50.974;11.330;2024-03-17T05:43:25;4.70;;;2.13;;
17814;SDS011;9031;50.974;11.330;2024-03-17T05:45:52;4.27;;;2.30;;
17814;SDS011;9031;50.974;11.330;2024-03-17T05:48:18;4.30;;;2.43;;
17814;SDS011;9031;50.974;11.330;2024-03-17T05:50:43;2.10;;;2.00;;
17814;SDS011;9031;50.974;11.330;2024-03-17T05:53:09;2.53;;;1.97;;
17814;SDS011;9031;50.974;11.330;2024-03-17T05:55:35;3.67;;;2.57;;
17814;SDS011;9031;50.974;11.330;2024-03-17T05:58:01;2.40;;;2.20;;
17814;SDS011;9031;50.974;11.330;2024-03-17T06:00:27;2.97;;;2.20;;
17814;SDS011;9031;50.974;11.330;2024-03-17T06:02:53;4.87;;;2.57;;
17814;SDS011;9031;50.974;11.330;2024-03-17T06:05:18;3.17;;;2.50;;
17814;SDS011;9031;50.974;11.330;2024-03-17T06:07:44;4.10;;;2.40;;
17814;SDS011;9031;50.974;11.330;2024-03-17T06:10:09;4.23;;;2.47;;
17814;SDS011;9031;50.974;11.330;2024-03-17T06:12:35;2.07;;;1.90;;
17814;SDS011;9031;50.974;11.330;2024-03-17T06:15:02;3.97;;;2.23;;
17814;SDS011;9031;50.974;11.330;2024-03-17T06:17:27;4.33;;;2.70;;
17814;SDS011;9031;50.974;11.330;2024-03-17T06:19:53;4.90;;;2.20;;
17814;SDS011;9031;50.974;11.330;2024-03-17T06:22:18;2.93;;;2.00;;
17814;SDS011;9031;50.974;11.330;2024-03-17T06:24:44;2.53;;;2.27;;
17814;SDS011;9031;50.974;11.330;2024-03-17T06:27:09;5.23;;;2.57;;
17814;SDS011;9031;50.974;11.330;2024-03-17T06:29:35;4.83;;;2.60;;
17814;SDS011;9031;50.974;11.330;2024-03-17T06:32:00;3.37;;;2.17;;
17814;SDS011;9031;50.974;11.330;2024-03-17T06:34:26;2.70;;;2.50;;
17814;SDS011;9031;50.974;11.330;2024-03-17T06:36:52;3.27;;;2.67;;
17814;SDS011;9031;50.974;11.330;2024-03-17T06:39:17;2.43;;;2.23;;
17814;SDS011;9031;50.974;11.330;2024-03-17T06:41:45;3.53;;;2.10;;
17814;SDS011;9031;50.974;11.330;2024-03-17T06:44:10;2.87;;;2.23;;
17814;SDS011;9031;50.974;11.330;2024-03-17T06:46:36;2.30;;;2.10;;
17814;SDS011;9031;50.974;11.330;2024-03-17T06:49:01;2.20;;;2.00;;
17814;SDS011;9031;50.974;11.330;2024-03-17T06:51:27;3.03;;;2.10;;
17814;SDS011;9031;50.974;11.330;2024-03-17T06:53:52;3.10;;;2.17;;
17814;SDS011;9031;50.974;11.330;2024-03-17T06:56:18;2.77;;;2.10;;
17814;SDS011;9031;50.974;11.330;2024-03-17T06:58:43;2.53;;;1.87;;
17814;SDS011;9031;50.974;11.330;2024-03-17T07:01:08;3.47;;;2.40;;
17814;SDS011;9031;50.974;11.330;2024-03-17T07:03:34;3.63;;;2.33;;
17814;SDS011;9031;50.974;11.330;2024-03-17T07:06:01;3.73;;;2.47;;
17814;SDS011;9031;50.974;11.330;2024-03-17T07:08:28;3.83;;;2.43;;
17814;SDS011;9031;50.974;11.330;2024-03-17T07:10:55;2.40;;;2.20;;
17814;SDS011;9031;50.974;11.330;2024-03-17T07:13:21;2.50;;;2.30;;
17814;SDS011;9031;50.974;11.330;2024-03-17T07:15:47;3.10;;;2.40;;
17814;SDS011;9031;50.974;11.330;2024-03-17T07:18:12;3.73;;;2.13;;
17814;SDS011;9031;50.974;11.330;2024-03-17T07:20:38;4.40;;;2.13;;
17814;SDS011;9031;50.974;11.330;2024-03-17T07:23:04;2.57;;;2.07;;
17814;SDS011;9031;50.974;11.330;2024-03-17T07:25:29;3.57;;;1.90;;
17814;SDS011;9031;50.974;11.330;2024-03-17T07:27:55;2.63;;;1.90;;
17814;SDS011;9031;50.974;11.330;2024-03-17T07:30:21;3.80;;;2.27;;
17814;SDS011;9031;50.974;11.330;2024-03-17T07:32:46;3.03;;;2.20;;
17814;SDS011;9031;50.974;11.330;2024-03-17T07:35:12;2.40;;;2.13;;
17814;SDS011;9031;50.974;11.330;2024-03-17T07:37:38;4.23;;;2.30;;
17814;SDS011;9031;50.974;11.330;2024-03-17T07:40:04;4.53;;;2.47;;
17814;SDS011;9031;50.974;11.330;2024-03-17T07:42:31;4.93;;;2.60;;
17814;SDS011;9031;50.974;11.330;2024-03-17T07:44:58;3.03;;;2.30;;
17814;SDS011;9031;50.974;11.330;2024-03-17T07:47:23;2.50;;;2.30;;
17814;SDS011;9031;50.974;11.330;2024-03-17T07:49:49;4.80;;;1.87;;
17814;SDS011;9031;50.974;11.330;2024-03-17T07:52:14;3.00;;;2.27;;
17814;SDS011;9031;50.974;11.330;2024-03-17T07:54:40;2.37;;;1.90;;
17814;SDS011;9031;50.974;11.330;2024-03-17T07:57:06;3.50;;;2.23;;
17814;SDS011;9031;50.974;11.330;2024-03-17T07:59:33;2.83;;;2.13;;
17814;SDS011;9031;50.974;11.330;2024-03-17T08:01:59;5.37;;;1.83;;
17814;SDS011;9031;50.974;11.330;2024-03-17T08:04:24;5.30;;;2.20;;
17814;SDS011;9031;50.974;11.330;2024-03-17T08:06:50;2.67;;;2.00;;
17814;SDS011;9031;50.974;11.330;2024-03-17T08:09:15;6.83;;;1.73;;
17814;SDS011;9031;50.974;11.330;2024-03-17T08:11:41;3.13;;;1.77;;
17814;SDS011;9031;50.974;11.330;2024-03-17T08:14:11;2.30;;;1.60;;
17814;SDS011;9031;50.974;11.330;2024-03-17T08:16:37;4.37;;;1.70;;
17814;SDS011;9031;50.974;11.330;2024-03-17T08:19:03;3.63;;;1.63;;
17814;SDS011;9031;50.974;11.330;2024-03-17T08:21:28;4.10;;;1.60;;
17814;SDS011;9031;50.974;11.330;2024-03-17T08:23:54;1.93;;;1.57;;
17814;SDS011;9031;50.974;11.330;2024-03-17T08:26:20;5.10;;;1.77;;
17814;SDS011;9031;50.974;11.330;2024-03-17T08:28:46;4.80;;;2.20;;
17814;SDS011;9031;50.974;11.330;2024-03-17T08:31:11;4.60;;;1.97;;
17814;SDS011;9031;50.974;11.330;2024-03-17T08:33:37;2.07;;;1.50;;
17814;SDS011;9031;50.974;11.330;2024-03-17T08:36:04;3.63;;;1.90;;
17814;SDS011;9031;50.974;11.330;2024-03-17T08:38:32;2.20;;;1.70;;
17814;SDS011;9031;50.974;11.330;2024-03-17T08:41:02;2.50;;;1.97;;
17814;SDS011;9031;50.974;11.330;2024-03-17T08:43:32;3.10;;;1.90;;
17814;SDS011;9031;50.974;11.330;2024-03-17T08:45:58;3.53;;;2.20;;
17814;SDS011;9031;50.974;11.330;2024-03-17T08:48:27;2.63;;;2.00;;
17814;SDS011;9031;50.974;11.330;2024-03-17T08:50:54;3.73;;;1.97;;
17814;SDS011;9031;50.974;11.330;2024-03-17T08:53:20;3.00;;;2.10;;
17814;SDS011;9031;50.974;11.330;2024-03-17T08:55:46;3.10;;;2.00;;
17814;SDS011;9031;50.974;11.330;2024-03-17T08:58:12;2.67;;;2.00;;
17814;SDS011;9031;50.974;11.330;2024-03-17T09:00:37;3.83;;;2.43;;
17814;SDS011;9031;50.974;11.330;2024-03-17T09:03:03;3.37;;;2.53;;
17814;SDS011;9031;50.974;11.330;2024-03-17T09:05:29;3.63;;;2.67;;
17814;SDS011;9031;50.974;11.330;2024-03-17T09:07:57;3.00;;;2.70;;
17814;SDS011;9031;50.974;11.330;2024-03-17T09:10:22;4.57;;;2.50;;
17814;SDS011;9031;50.974;11.330;2024-03-17T09:12:49;3.27;;;2.67;;
17814;SDS011;9031;50.974;11.330;2024-03-17T09:15:14;4.37;;;2.87;;
17814;SDS011;9031;50.974;11.330;2024-03-17T09:17:40;3.90;;;2.57;;
17814;SDS011;9031;50.974;11.330;2024-03-17T09:20:06;4.10;;;3.00;;
17814;SDS011;9031;50.974;11.330;2024-03-17T09:22:36;4.73;;;2.50;;
17814;SDS011;9031;50.974;11.330;2024-03-17T09:25:05;4.50;;;2.77;;
17814;SDS011;9031;50.974;11.330;2024-03-17T09:27:32;3.90;;;2.53;;
17814;SDS011;9031;50.974;11.330;2024-03-17T09:29:58;6.50;;;3.10;;
17814;SDS011;9031;50.974;11.330;2024-03-17T09:32:24;5.40;;;2.97;;
17814;SDS011;9031;50.974;11.330;2024-03-17T09:34:50;3.53;;;2.77;;
17814;SDS011;9031;50.974;11.330;2024-03-17T09:37:16;4.03;;;2.80;;
17814;SDS011;9031;50.974;11.330;2024-03-17T09:39:41;4.50;;;2.93;;
17814;SDS011;9031;50.974;11.330;2024-03-17T09:42:10;4.03;;;2.53;;
17814;SDS011;9031;50.974;11.330;2024-03-17T09:44:46;4.57;;;2.70;;
17814;SDS011;9031;50.974;11.330;2024-03-17T09:47:20;4.83;;;2.87;;
17814;SDS011;9031;50.974;11.330;2024-03-17T09:49:47;3.70;;;2.33;;
17814;SDS011;9031;50.974;11.330;2024-03-17T09:52:18;3.07;;;2.60;;
17814;SDS011;9031;50.974;11.330;2024-03-17T09:54:44;5.40;;;2.80;;
17814;SDS011;9031;50.974;11.330;2024-03-17T09:57:13;4.30;;;2.60;;
17814;SDS011;9031;50.974;11.330;2024-03-17T09:59:41;3.63;;;2.83;;
17814;SDS011;9031;50.974;11.330;2024-03-17T10:02:09;4.33;;;2.90;;
17814;SDS011;9031;50.974;11.330;2024-03-17T10:04:42;4.13;;;2.77;;
17814;SDS011;9031;50.974;11.330;2024-03-17T10:07:08;4.77;;;2.67;;
17814;SDS011;9031;50.974;11.330;2024-03-17T10:09:33;4.77;;;2.77;;
17814;SDS011;9031;50.974;11.330;2024-03-17T10:11:59;4.83;;;2.60;;
17814;SDS011;9031;50.974;11.330;2024-03-17T10:14:24;3.80;;;2.67;;
17814;SDS011;9031;50.974;11.330;2024-03-17T10:16:50;3.30;;;2.23;;
17814;SDS011;9031;50.974;11.330;2024-03-17T10:19:25;3.97;;;2.53;;
17814;SDS011;9031;50.974;11.330;2024-03-17T10:21:59;3.80;;;3.00;;
17814;SDS011;9031;50.974;11.330;2024-03-17T10:24:26;5.23;;;2.50;;
17814;SDS011;9031;50.974;11.330;2024-03-17T10:26:57;4.67;;;2.43;;
17814;SDS011;9031;50.974;11.330;2024-03-17T10:31:56;3.67;;;2.50;;
17814;SDS011;9031;50.974;11.330;2024-03-17T10:34:27;3.03;;;2.27;;
17814;SDS011;9031;50.974;11.330;2024-03-17T10:39:42;4.43;;;2.27;;
17814;SDS011;9031;50.974;11.330;2024-03-17T10:42:09;4.47;;;2.60;;
17814;SDS011;9031;50.974;11.330;2024-03-17T10:44:36;4.20;;;2.73;;
17814;SDS011;9031;50.974;11.330;2024-03-17T10:47:03;3.53;;;2.20;;
17814;SDS011;9031;50.974;11.330;2024-03-17T10:49:35;3.50;;;2.30;;
17814;SDS011;9031;50.974;11.330;2024-03-17T10:52:05;5.53;;;2.40;;
17814;SDS011;9031;50.974;11.330;2024-03-17T10:54:33;2.83;;;2.30;;
17814;SDS011;9031;50.974;11.330;2024-03-17T10:59:57;3.53;;;2.10;;
17814;SDS011;9031;50.974;11.330;2024-03-17T11:02:25;2.93;;;2.13;;
17814;SDS011;9031;50.974;11.330;2024-03-17T11:05:01;4.23;;;2.23;;
17814;SDS011;9031;50.974;11.330;2024-03-17T11:07:28;3.97;;;2.50;;
17814;SDS011;9031;50.974;11.330;2024-03-17T11:09:56;3.53;;;2.43;;
17814;SDS011;9031;50.974;11.330;2024-03-17T11:17:54;5.47;;;2.27;;
17814;SDS011;9031;50.974;11.330;2024-03-17T11:20:52;5.37;;;2.60;;
17814;SDS011;9031;50.974;11.330;2024-03-17T11:23:57;5.63;;;2.10;;
17814;SDS011;9031;50.974;11.330;2024-03-17T11:26:28;2.47;;;2.10;;
17814;SDS011;9031;50.974;11.330;2024-03-17T11:28:55;2.88;;;2.00;;
17814;SDS011;9031;50.974;11.330;2024-03-17T11:31:39;3.75;;;2.00;;
17814;SDS011;9031;50.974;11.330;2024-03-17T11:36:57;4.32;;;2.60;;
17814;SDS011;9031;50.974;11.330;2024-03-17T11:40:22;4.25;;;2.70;;
17814;SDS011;9031;50.974;11.330;2024-03-17T11:42:20;3.97;;;2.28;;
17814;SDS011;9031;50.974;11.330;2024-03-17T11:44:55;10.68;;;3.20;;
17814;SDS011;9031;50.974;11.330;2024-03-17T11:47:23;3.72;;;2.38;;
17814;SDS011;9031;50.974;11.330;2024-03-17T11:49:49;3.03;;;2.60;;
17814;SDS011;9031;50.974;11.330;2024-03-17T11:52:16;3.30;;;2.67;;
17814;SDS011;9031;50.974;11.330;2024-03-17T11:54:44;5.10;;;3.00;;
17814;SDS011;9031;50.974;11.330;2024-03-17T11:57:11;5.13;;;2.90;;
17814;SDS011;9031;50.974;11.330;2024-03-17T11:59:37;4.10;;;2.70;;
17814;SDS011;9031;50.974;11.330;2024-03-17T12:02:14;4.30;;;2.40;;
17814;SDS011;9031;50.974;11.330;2024-03-17T12:04:43;3.77;;;2.60;;
17814;SDS011;9031;50.974;11.330;2024-03-17T12:07:12;3.53;;;2.57;;
17814;SDS011;9031;50.974;11.330;2024-03-17T12:09:39;3.33;;;2.90;;
17814;SDS011;9031;50.974;11.330;2024-03-17T12:12:11;3.80;;;2.47;;
17814;SDS011;9031;50.974;11.330;2024-03-17T12:14:44;2.50;;;2.30;;
17814;SDS011;9031;50.974;11.330;2024-03-17T12:17:11;4.05;;;3.13;;
17814;SDS011;9031;50.974;11.330;2024-03-17T12:19:44;3.50;;;2.60;;
17814;SDS011;9031;50.974;11.330;2024-03-17T12:22:14;3.03;;;2.70;;
17814;SDS011;9031;50.974;11.330;2024-03-17T12:24:46;4.90;;;2.70;;
17814;SDS011;9031;50.974;11.330;2024-03-17T12:27:17;3.30;;;2.57;;
17814;SDS011;9031;50.974;11.330;2024-03-17T12:29:43;4.93;;;2.93;;
17814;SDS011;9031;50.974;11.330;2024-03-17T12:32:12;3.17;;;2.80;;
17814;SDS011;9031;50.974;11.330;2024-03-17T12:34:43;4.63;;;3.00;;
17814;SDS011;9031;50.974;11.330;2024-03-17T12:37:14;4.93;;;3.10;;
17814;SDS011;9031;50.974;11.330;2024-03-17T12:39:42;4.00;;;2.70;;
17814;SDS011;9031;50.974;11.330;2024-03-17T12:42:09;5.43;;;2.83;;
17814;SDS011;9031;50.974;11.330;2024-03-17T12:44:39;5.37;;;2.93;;
17814;SDS011;9031;50.974;11.330;2024-03-17T12:47:30;4.90;;;2.80;;
17814;SDS011;9031;50.974;11.330;2024-03-17T12:49:57;3.50;;;2.70;;
17814;SDS011;9031;50.974;11.330;2024-03-17T12:55:03;4.00;;;2.90;;
17814;SDS011;9031;50.974;11.330;2024-03-17T12:57:52;4.30;;;3.07;;
17814;SDS011;9031;50.974;11.330;2024-03-17T13:01:01;4.37;;;3.00;;
17814;SDS011;9031;50.974;11.330;2024-03-17T13:03:29;4.33;;;3.10;;
17814;SDS011;9031;50.974;11.330;2024-03-17T13:05:59;4.70;;;3.20;;
17814;SDS011;9031;50.974;11.330;2024-03-17T13:08:27;4.37;;;2.80;;
17814;SDS011;9031;50.974;11.330;2024-03-17T13:10:53;3.23;;;2.80;;
17814;SDS011;9031;50.974;11.330;2024-03-17T13:13:19;4.57;;;3.10;;
17814;SDS011;9031;50.974;11.330;2024-03-17T13:15:44;4.30;;;2.80;;
17814;SDS011;9031;50.974;11.330;2024-03-17T13:18:15;3.77;;;2.73;;
17814;SDS011;9031;50.974;11.330;2024-03-17T13:20:43;5.47;;;3.00;;
17814;SDS011;9031;50.974;11.330;2024-03-17T13:23:08;4.80;;;2.53;;
17814;SDS011;9031;50.974;11.330;2024-03-17T13:25:34;5.03;;;3.00;;
17814;SDS011;9031;50.974;11.330;2024-03-17T13:28:01;4.53;;;2.67;;
17814;SDS011;9031;50.974;11.330;2024-03-17T13:30:28;4.07;;;2.77;;
17814;SDS011;9031;50.974;11.330;2024-03-17T13:32:55;5.43;;;3.13;;
17814;SDS011;9031;50.974;11.330;2024-03-17T13:35:25;5.50;;;2.90;;
17814;SDS011;9031;50.974;11.330;2024-03-17T13:37:52;4.60;;;3.07;;
17814;SDS011;9031;50.974;11.330;2024-03-17T13:40:19;4.40;;;3.00;;
17814;SDS011;9031;50.974;11.330;2024-03-17T13:42:45;5.67;;;3.30;;
17814;SDS011;9031;50.974;11.330;2024-03-17T13:45:14;3.33;;;2.67;;
17814;SDS011;9031;50.974;11.330;2024-03-17T13:47:41;4.47;;;2.90;;
17814;SDS011;9031;50.974;11.330;2024-03-17T13:50:15;3.90;;;2.70;;
17814;SDS011;9031;50.974;11.330;2024-03-17T13:52:42;4.50;;;3.50;;
17814;SDS011;9031;50.974;11.330;2024-03-17T13:55:12;4.67;;;3.33;;
17814;SDS011;9031;50.974;11.330;2024-03-17T13:57:39;5.30;;;3.70;;
17814;SDS011;9031;50.974;11.330;2024-03-17T14:00:06;5.10;;;3.80;;
17814;SDS011;9031;50.974;11.330;2024-03-17T14:02:32;4.60;;;3.50;;
17814;SDS011;9031;50.974;11.330;2024-03-17T14:04:58;3.50;;;3.20;;
17814;SDS011;9031;50.974;11.330;2024-03-17T14:07:24;4.47;;;3.50;;
17814;SDS011;9031;50.974;11.330;2024-03-17T14:09:50;3.60;;;3.30;;
17814;SDS011;9031;50.974;11.330;2024-03-17T14:12:15;4.77;;;3.90;;
17814;SDS011;9031;50.974;11.330;2024-03-17T14:14:41;4.75;;;3.83;;
17814;SDS011;9031;50.974;11.330;2024-03-17T14:17:08;4.95;;;3.67;;
17814;SDS011;9031;50.974;11.330;2024-03-17T14:19:34;7.37;;;3.77;;
17814;SDS011;9031;50.974;11.330;2024-03-17T14:21:59;5.07;;;4.00;;
17814;SDS011;9031;50.974;11.330;2024-03-17T14:24:25;4.67;;;4.00;;
17814;SDS011;9031;50.974;11.330;2024-03-17T14:26:50;5.80;;;4.13;;
17814;SDS011;9031;50.974;11.330;2024-03-17T14:29:16;6.50;;;4.20;;
17814;SDS011;9031;50.974;11.330;2024-03-17T14:31:41;5.93;;;4.17;;
17814;SDS011;9031;50.974;11.330;2024-03-17T14:34:09;6.30;;;4.40;;
17814;SDS011;9031;50.974;11.330;2024-03-17T14:36:35;5.80;;;4.50;;
17814;SDS011;9031;50.974;11.330;2024-03-17T14:39:01;4.87;;;3.93;;
17814;SDS011;9031;50.974;11.330;2024-03-17T14:41:28;7.80;;;4.23;;
17814;SDS011;9031;50.974;11.330;2024-03-17T14:43:54;6.00;;;4.33;;
17814;SDS011;9031;50.974;11.330;2024-03-17T14:46:20;7.13;;;4.70;;
17814;SDS011;9031;50.974;11.330;2024-03-17T14:48:45;7.30;;;4.13;;
17814;SDS011;9031;50.974;11.330;2024-03-17T14:51:12;4.80;;;3.80;;
17814;SDS011;9031;50.974;11.330;2024-03-17T14:53:38;5.30;;;3.50;;
17814;SDS011;9031;50.974;11.330;2024-03-17T14:56:07;4.30;;;3.53;;
17814;SDS011;9031;50.974;11.330;2024-03-17T14:58:33;5.57;;;4.00;;
17814;SDS011;9031;50.974;11.330;2024-03-17T15:00:59;5.77;;;3.70;;
17814;SDS011;9031;50.974;11.330;2024-03-17T15:03:24;5.97;;;4.07;;
17814;SDS011;9031;50.974;11.330;2024-03-17T15:05:50;5.53;;;4.17;;
17814;SDS011;9031;50.974;11.330;2024-03-17T15:08:16;5.00;;;4.07;;